Portada
METAR-TAF:

METAR-TAF

Aeroports :

Kutaïsi, Geòrgia

latitud: 42-10-35N, longitud: 042-28-57E, altitud: 68 m

Observació

L'informe es va fer fa 11 minuts, a les 03:30 UTC
Vent 16 kt del Est amb ràfegues de 27 kt, variant entre Nord-Est i Est/Sud-Est
Temperatura 23°C
Humitat 50%
Pressió 1015 hPa
Visibilitat 10 km o més
sense núvols per sota de 1500 mi sense presència de cumulonimbus.

METAR: UGKO 270330Z 08016G27KT 050V110 CAVOK 23/12 Q1015 NOSIG

Hora: 07:41 (03:41 UTC)

Pronòstic

L'informe es va fer fa 4 hores i 41 minuts, a les 23:00 UTC
Pronòstic vàlid del 27 a les 00 UTC al 27 a les 24 UTC
Vent 7 kt del Est
Visibilitat 10 km o més
sense núvols per sota de 1500 mi sense presència de cumulonimbus.
Temporalment
l' 27 a les 00 UTC al 27 a les 06 UTC
Vent 17 kt del Est/Nord-Est amb ràfegues de 27 kt
Temporalment
l' 27 a les 20 UTC al 27 a les 24 UTC
Vent 17 kt del Est

TAF: UGKO 262300Z 2700/2724 08007KT CAVOK TX30/2711Z TN14/2720Z TEMPO 2700/2706 07017G27KT TEMPO 2720/2724 08017KT

Observacions i pronòstics meteorològics de més de 4000 aeroports (METAR i TAF).

Les estacions disponibles són els punts grocs i vermells al mapa.

Posi el ratolí al punt desitjat per veure el nom de l'estació.

Feu clic per veure les observacions i els pronòstics meteorològics.

Per canviar el mapa: feu clic els botons verds amb una creu de color negre per apropar; al botó verd amb un guió per allunyar la imatge; o en les fletxes verdes per a mapes adjacents.


METAR-TAF: